createdAt,value
2023-03-15T00:00:53.470Z,5.71
2023-03-15T00:01:56.643Z,7.29
2023-03-15T00:03:00.234Z,8.14
2023-03-15T00:04:03.630Z,7.57
2023-03-15T00:05:07.125Z,10.29
2023-03-15T00:06:10.216Z,7.71
2023-03-15T00:07:13.580Z,8.00
2023-03-15T00:08:16.675Z,6.67
2023-03-15T00:09:19.945Z,6.00
2023-03-15T00:10:23.110Z,6.43
2023-03-15T00:11:26.404Z,7.43
2023-03-15T00:12:29.583Z,6.86
2023-03-15T00:13:33.080Z,10.00
2023-03-15T00:14:36.330Z,8.43
2023-03-15T00:15:39.653Z,7.43
2023-03-15T00:16:42.726Z,8.57
2023-03-15T00:17:46.006Z,10.00
2023-03-15T00:18:49.610Z,10.00
2023-03-15T00:19:52.882Z,8.14
2023-03-15T00:20:56.605Z,7.14
2023-03-15T00:21:59.760Z,8.43
2023-03-15T00:23:03.042Z,9.33
2023-03-15T00:24:06.430Z,6.00
2023-03-15T00:25:09.613Z,5.71
2023-03-15T00:26:12.798Z,5.86
2023-03-15T00:27:16.282Z,6.00
2023-03-15T00:28:19.484Z,6.57
2023-03-15T00:29:22.657Z,7.14
2023-03-15T00:30:25.930Z,5.14
2023-03-15T00:31:29.386Z,4.71
2023-03-15T00:32:32.759Z,6.00
2023-03-15T00:33:35.819Z,5.57
2023-03-15T00:34:38.974Z,5.50
2023-03-15T00:35:42.380Z,7.71
2023-03-15T00:36:45.538Z,11.00
2023-03-15T00:37:48.921Z,8.14
2023-03-15T00:38:52.103Z,6.00
2023-03-15T00:39:55.457Z,6.14
2023-03-15T00:40:58.659Z,6.86
2023-03-15T00:42:01.955Z,8.00
2023-03-15T00:43:05.244Z,8.43
2023-03-15T00:44:08.440Z,10.71
2023-03-15T00:45:11.608Z,9.86
2023-03-15T00:46:15.007Z,7.00
2023-03-15T00:47:18.169Z,7.00
2023-03-15T00:48:21.558Z,6.00
2023-03-15T00:49:24.837Z,6.86
2023-03-15T00:50:28.155Z,8.14
2023-03-15T00:51:32.345Z,7.71
2023-03-15T00:52:35.716Z,6.62
2023-03-15T00:53:38.699Z,7.57
2023-03-15T00:54:41.804Z,6.33
2023-03-15T00:55:44.752Z,7.00
2023-03-15T00:56:47.837Z,6.86
2023-03-15T00:57:51.013Z,6.14
2023-03-15T00:58:54.212Z,7.00
2023-03-15T00:59:57.205Z,5.00
2023-03-15T01:01:00.157Z,6.29
2023-03-15T01:02:03.190Z,8.00
2023-03-15T01:03:06.340Z,7.14
2023-03-15T01:04:09.283Z,6.57
2023-03-15T01:05:12.470Z,7.17
2023-03-15T01:06:15.762Z,7.57
2023-03-15T01:07:19.033Z,11.29
2023-03-15T01:08:22.213Z,16.14
2023-03-15T01:09:25.410Z,13.43
2023-03-15T01:10:28.698Z,8.86
2023-03-15T01:11:32.181Z,6.14
2023-03-15T01:12:35.151Z,7.57
2023-03-15T01:13:38.463Z,6.67
2023-03-15T01:14:41.638Z,6.67
2023-03-15T01:15:44.930Z,7.50
2023-03-15T01:16:47.963Z,4.71
2023-03-15T01:17:50.953Z,4.67
2023-03-15T01:18:54.229Z,5.50
2023-03-15T01:19:57.519Z,6.00
2023-03-15T01:21:00.711Z,6.29
2023-03-15T01:22:04.004Z,6.14
2023-03-15T01:23:07.173Z,5.86
2023-03-15T01:24:10.554Z,6.71
2023-03-15T01:25:13.847Z,7.00
2023-03-15T01:26:17.230Z,6.43
2023-03-15T01:27:20.520Z,8.57
2023-03-15T01:28:23.518Z,8.71
2023-03-15T01:29:26.720Z,6.71
2023-03-15T01:30:29.954Z,5.86
2023-03-15T01:31:33.370Z,6.14
2023-03-15T01:32:36.653Z,6.57
2023-03-15T01:33:39.709Z,5.57
2023-03-15T01:34:42.890Z,5.00
2023-03-15T01:35:46.203Z,4.71
2023-03-15T01:36:49.394Z,5.57
2023-03-15T01:37:52.640Z,5.86
2023-03-15T01:38:56.025Z,7.33
2023-03-15T01:39:59.324Z,9.14
2023-03-15T01:41:02.590Z,9.14
2023-03-15T01:42:05.775Z,9.00
2023-03-15T01:43:09.169Z,7.14
2023-03-15T01:44:12.554Z,5.29
2023-03-15T01:45:15.859Z,5.14
2023-03-15T01:46:19.211Z,5.83
2023-03-15T01:47:22.383Z,6.29
2023-03-15T01:48:25.452Z,6.71
2023-03-15T01:49:28.664Z,6.14
2023-03-15T01:50:31.842Z,6.71
2023-03-15T01:51:35.554Z,7.71
2023-03-15T01:52:38.629Z,6.57
2023-03-15T01:53:41.822Z,6.86
2023-03-15T01:54:44.882Z,6.71
2023-03-15T01:55:47.816Z,5.43
2023-03-15T01:56:50.839Z,6.57
2023-03-15T01:57:53.787Z,5.50
2023-03-15T01:58:56.796Z,5.50
2023-03-15T01:59:59.970Z,6.00
2023-03-15T02:01:03.103Z,6.00
2023-03-15T02:02:06.136Z,6.17
2023-03-15T02:03:09.104Z,7.00
2023-03-15T02:04:12.184Z,7.67
2023-03-15T02:05:15.265Z,13.71
2023-03-15T02:06:18.261Z,11.86
2023-03-15T02:07:21.254Z,9.29
2023-03-15T02:08:24.196Z,8.57
2023-03-15T02:09:27.380Z,5.71
2023-03-15T02:10:30.364Z,6.00
2023-03-15T02:11:33.644Z,7.00
2023-03-15T02:12:36.615Z,5.71
2023-03-15T02:13:39.696Z,4.43
2023-03-15T02:14:42.877Z,5.86
2023-03-15T02:15:45.824Z,7.14
2023-03-15T02:16:48.884Z,6.71
2023-03-15T02:17:52.040Z,5.86
2023-03-15T02:18:55.103Z,6.57
2023-03-15T02:19:58.093Z,6.14
2023-03-15T02:21:01.016Z,6.67
2023-03-15T02:22:04.154Z,7.33
2023-03-15T02:23:07.117Z,6.00
2023-03-15T02:24:10.129Z,6.33
2023-03-15T02:25:13.166Z,6.33
2023-03-15T02:26:16.350Z,8.00
2023-03-15T02:27:19.528Z,6.71
2023-03-15T02:28:22.615Z,5.00
2023-03-15T02:29:25.695Z,6.00
2023-03-15T02:30:28.861Z,6.83
2023-03-15T02:31:31.993Z,5.33
2023-03-15T02:32:34.962Z,5.33
2023-03-15T02:33:37.894Z,6.33
2023-03-15T02:34:41.083Z,5.43
2023-03-15T02:35:44.067Z,7.43
2023-03-15T02:36:47.016Z,8.14
2023-03-15T02:37:50.010Z,6.86
2023-03-15T02:38:53.103Z,6.43
2023-03-15T02:39:56.279Z,6.71
2023-03-15T02:40:59.354Z,7.29
2023-03-15T02:42:02.351Z,8.00
2023-03-15T02:43:05.517Z,6.86
2023-03-15T02:44:08.630Z,6.57
2023-03-15T02:45:11.575Z,6.57
2023-03-15T02:46:14.784Z,7.86
2023-03-15T02:47:17.839Z,6.71
2023-03-15T02:48:20.910Z,5.71
2023-03-15T02:49:24.101Z,7.14
2023-03-15T02:50:27.177Z,7.71
2023-03-15T02:51:30.158Z,8.57
2023-03-15T02:52:33.140Z,7.00
2023-03-15T02:53:36.223Z,6.17
2023-03-15T02:54:39.346Z,6.57
2023-03-15T02:55:42.680Z,7.43
2023-03-15T02:56:46.276Z,8.00
2023-03-15T02:57:49.567Z,7.14
2023-03-15T02:58:53.039Z,6.00
2023-03-15T02:59:56.218Z,6.33
2023-03-15T03:00:59.493Z,6.71
2023-03-15T03:02:02.772Z,6.71
2023-03-15T03:03:05.973Z,5.57
2023-03-15T03:04:09.385Z,5.43
2023-03-15T03:05:12.648Z,6.83
2023-03-15T03:06:15.845Z,8.14
2023-03-15T03:07:18.908Z,8.17
2023-03-15T03:08:22.091Z,8.29
2023-03-15T03:09:25.279Z,7.29
2023-03-15T03:10:28.252Z,6.00
2023-03-15T03:11:31.445Z,6.57
2023-03-15T03:12:34.428Z,8.57
2023-03-15T03:13:37.384Z,8.71
2023-03-15T03:14:40.357Z,7.29
2023-03-15T03:15:44.491Z,8.57
2023-03-15T03:16:47.692Z,9.25
2023-03-15T03:17:50.832Z,7.00
2023-03-15T03:18:53.919Z,7.00
2023-03-15T03:19:56.988Z,5.29
2023-03-15T03:20:59.970Z,4.43
2023-03-15T03:22:03.103Z,7.29
2023-03-15T03:23:06.232Z,6.29
2023-03-15T03:24:09.512Z,7.00
2023-03-15T03:25:12.800Z,7.43
2023-03-15T03:26:16.172Z,7.57
2023-03-15T03:27:19.531Z,6.62
2023-03-15T03:28:22.748Z,7.57
2023-03-15T03:29:26.122Z,7.00
2023-03-15T03:30:29.494Z,7.29
2023-03-15T03:31:32.808Z,7.57
2023-03-15T03:32:36.275Z,7.29
2023-03-15T03:33:39.473Z,7.29
2023-03-15T03:34:42.850Z,7.71
2023-03-15T03:35:46.209Z,5.57
2023-03-15T03:36:49.644Z,6.57
2023-03-15T03:37:53.229Z,7.71
2023-03-15T03:38:56.505Z,7.86
2023-03-15T03:39:59.801Z,7.29
2023-03-15T03:41:03.281Z,8.00
2023-03-15T03:42:06.766Z,8.00
2023-03-15T03:43:09.949Z,6.14
2023-03-15T03:44:13.292Z,6.00
2023-03-15T03:45:16.624Z,6.71
2023-03-15T03:46:19.948Z,7.86
2023-03-15T03:47:23.231Z,9.71
2023-03-15T03:48:26.391Z,8.57
2023-03-15T03:49:30.194Z,7.00
2023-03-15T03:50:33.576Z,7.43
2023-03-15T03:51:37.038Z,6.29
2023-03-15T03:52:40.328Z,5.14
2023-03-15T03:53:43.624Z,5.00
2023-03-15T03:54:46.990Z,7.14
2023-03-15T03:55:50.288Z,8.00
2023-03-15T03:56:53.575Z,7.43
2023-03-15T03:57:56.951Z,6.86
2023-03-15T03:59:00.370Z,10.29
2023-03-15T04:00:03.734Z,9.50
2023-03-15T04:01:06.928Z,4.29
2023-03-15T04:02:10.273Z,6.43
2023-03-15T04:03:13.477Z,7.00
2023-03-15T04:04:16.963Z,6.00
2023-03-15T04:05:20.261Z,4.86
2023-03-15T04:06:23.649Z,6.71
2023-03-15T04:07:26.823Z,7.00
2023-03-15T04:08:30.235Z,7.33
2023-03-15T04:09:33.191Z,5.86
2023-03-15T04:10:36.482Z,7.00
2023-03-15T04:11:39.549Z,7.29
2023-03-15T04:12:42.622Z,7.29
2023-03-15T04:13:45.712Z,6.71
2023-03-15T04:14:48.795Z,6.14
2023-03-15T04:15:52.034Z,6.71
2023-03-15T04:16:55.071Z,7.14
2023-03-15T04:17:58.144Z,7.43
2023-03-15T04:19:01.320Z,8.14
2023-03-15T04:20:04.305Z,7.57
2023-03-15T04:21:07.363Z,6.57
2023-03-15T04:22:10.522Z,7.57
2023-03-15T04:23:13.736Z,7.86
2023-03-15T04:24:17.233Z,7.67
2023-03-15T04:25:20.480Z,9.88
2023-03-15T04:26:23.784Z,8.43
2023-03-15T04:27:26.975Z,8.57
2023-03-15T04:28:30.255Z,7.71
2023-03-15T04:29:33.536Z,8.00
2023-03-15T04:30:36.833Z,9.43
2023-03-15T04:31:40.341Z,7.71
2023-03-15T04:32:43.616Z,8.29
2023-03-15T04:33:46.875Z,8.29
2023-03-15T04:34:50.314Z,7.00
2023-03-15T04:35:53.472Z,8.29
2023-03-15T04:36:56.637Z,9.14
2023-03-15T04:38:00.018Z,8.00
2023-03-15T04:39:03.310Z,7.29
2023-03-15T04:40:06.594Z,7.43
2023-03-15T04:41:09.878Z,6.29
2023-03-15T04:42:13.173Z,7.71
2023-03-15T04:43:16.544Z,7.33
2023-03-15T04:44:20.727Z,6.00
2023-03-15T04:45:24.038Z,6.37
2023-03-15T04:46:27.357Z,9.29
2023-03-15T04:47:30.497Z,8.67
2023-03-15T04:48:33.793Z,7.43
2023-03-15T04:49:37.166Z,8.86
2023-03-15T04:50:40.497Z,9.00
2023-03-15T04:51:43.655Z,8.14
2023-03-15T04:52:47.035Z,7.00
2023-03-15T04:53:50.280Z,6.86
2023-03-15T04:54:53.497Z,8.14
2023-03-15T04:55:57.599Z,7.00
2023-03-15T04:57:01.095Z,8.00
2023-03-15T04:58:04.274Z,9.00
2023-03-15T04:59:07.363Z,7.86
2023-03-15T05:00:10.539Z,7.67
2023-03-15T05:01:13.648Z,8.71
2023-03-15T05:02:16.853Z,8.57
2023-03-15T05:03:20.241Z,8.86
2023-03-15T05:04:23.756Z,10.00
2023-03-15T05:05:30.017Z,8.14
2023-03-15T05:06:33.807Z,7.75
2023-03-15T05:07:37.309Z,8.00
2023-03-15T05:08:40.399Z,7.14
2023-03-15T05:09:43.570Z,7.86
2023-03-15T05:10:46.655Z,9.33
2023-03-15T05:11:50.257Z,7.86
2023-03-15T05:12:53.230Z,8.29
2023-03-15T05:13:56.378Z,9.14
2023-03-15T05:14:59.539Z,7.86
2023-03-15T05:16:02.557Z,8.86
2023-03-15T05:17:05.539Z,7.14
2023-03-15T05:18:08.716Z,6.29
2023-03-15T05:19:11.802Z,7.86
2023-03-15T05:20:14.980Z,7.86
2023-03-15T05:21:17.957Z,7.43
2023-03-15T05:22:21.053Z,8.00
2023-03-15T05:23:24.151Z,6.17
2023-03-15T05:24:27.096Z,7.67
2023-03-15T05:25:30.478Z,8.00
2023-03-15T05:26:33.558Z,6.57
2023-03-15T05:27:36.618Z,7.67
2023-03-15T05:28:39.720Z,6.17
2023-03-15T05:29:42.898Z,6.67
2023-03-15T05:30:45.780Z,8.00
2023-03-15T05:31:48.876Z,8.00
2023-03-15T05:32:52.082Z,8.33
2023-03-15T05:33:55.130Z,7.71
2023-03-15T05:34:58.398Z,7.67
2023-03-15T05:36:01.433Z,8.29
2023-03-15T05:37:04.961Z,10.00
2023-03-15T05:38:08.595Z,8.00
2023-03-15T05:39:12.135Z,7.00
2023-03-15T05:40:15.727Z,6.57
2023-03-15T05:41:19.544Z,6.50
2023-03-15T05:42:22.948Z,6.87
2023-03-15T05:43:26.340Z,6.43
2023-03-15T05:44:30.110Z,7.00
2023-03-15T05:45:33.639Z,6.75
2023-03-15T05:46:37.287Z,6.00
2023-03-15T05:47:40.756Z,6.43
2023-03-15T05:48:44.463Z,7.00
2023-03-15T05:49:47.870Z,7.29
2023-03-15T05:50:51.267Z,7.86
2023-03-15T05:51:54.435Z,7.71
2023-03-15T05:52:57.823Z,8.29
2023-03-15T05:54:01.082Z,7.00
2023-03-15T05:55:04.385Z,5.71
2023-03-15T05:56:07.639Z,6.29
2023-03-15T05:57:10.860Z,7.86
2023-03-15T05:58:14.515Z,7.71
2023-03-15T05:59:17.826Z,6.50
2023-03-15T06:00:21.125Z,6.57
2023-03-15T06:01:24.522Z,6.57
2023-03-15T06:02:27.773Z,7.00
2023-03-15T06:03:31.240Z,7.43
2023-03-15T06:04:34.819Z,8.43
2023-03-15T06:05:38.014Z,9.00
2023-03-15T06:06:41.426Z,7.14
2023-03-15T06:07:44.734Z,7.29
2023-03-15T06:08:47.995Z,8.00
2023-03-15T06:09:51.485Z,6.86
2023-03-15T06:10:54.662Z,6.57
2023-03-15T06:11:57.853Z,6.43
2023-03-15T06:13:01.033Z,7.43
2023-03-15T06:14:04.581Z,7.43
2023-03-15T06:15:07.951Z,7.29
2023-03-15T06:16:11.360Z,7.43
2023-03-15T06:17:14.579Z,6.29
2023-03-15T06:18:17.663Z,8.00
2023-03-15T06:19:21.365Z,8.00
2023-03-15T06:20:24.636Z,6.00
2023-03-15T06:21:27.923Z,7.43
2023-03-15T06:22:31.420Z,6.71
2023-03-15T06:23:34.604Z,6.17
2023-03-15T06:24:38.091Z,6.57
2023-03-15T06:25:41.169Z,7.14
2023-03-15T06:26:44.347Z,7.00
2023-03-15T06:27:47.435Z,5.71
2023-03-15T06:28:50.722Z,6.43
2023-03-15T06:29:54.070Z,6.57
2023-03-15T06:30:57.641Z,6.43
2023-03-15T06:32:01.241Z,5.86
2023-03-15T06:33:04.930Z,5.75
2023-03-15T06:34:08.440Z,6.43
2023-03-15T06:35:12.136Z,7.00
2023-03-15T06:36:15.780Z,7.00
2023-03-15T06:37:29.051Z,7.00
2023-03-15T06:38:23.335Z,6.12
2023-03-15T06:39:26.721Z,6.33
2023-03-15T06:40:29.913Z,7.57
2023-03-15T06:41:33.278Z,6.86
2023-03-15T06:42:36.456Z,6.43
2023-03-15T06:43:39.785Z,6.00
2023-03-15T06:44:43.047Z,6.43
2023-03-15T06:45:46.359Z,6.86
2023-03-15T06:46:49.711Z,5.57
2023-03-15T06:47:53.027Z,5.43
2023-03-15T06:48:56.183Z,6.43
2023-03-15T06:49:59.595Z,6.17
2023-03-15T06:51:02.961Z,7.00
2023-03-15T06:52:06.163Z,6.71
2023-03-15T06:53:09.446Z,6.14
2023-03-15T06:54:12.729Z,6.43
2023-03-15T06:55:16.008Z,6.00
2023-03-15T06:56:19.292Z,6.50
2023-03-15T06:57:22.530Z,5.86
2023-03-15T06:58:25.736Z,6.43
2023-03-15T06:59:29.036Z,5.86
2023-03-15T07:00:32.217Z,5.00
2023-03-15T07:01:35.650Z,6.43
2023-03-15T07:02:38.846Z,7.00
2023-03-15T07:03:42.171Z,6.71
2023-03-15T07:04:45.752Z,6.00
2023-03-15T07:05:48.941Z,6.00
2023-03-15T07:06:52.214Z,6.00
2023-03-15T07:07:55.615Z,5.29
2023-03-15T07:08:58.688Z,6.14
2023-03-15T07:10:01.864Z,6.43
2023-03-15T07:11:05.189Z,6.43
2023-03-15T07:12:08.433Z,6.29
2023-03-15T07:13:11.718Z,7.43
2023-03-15T07:14:15.015Z,7.00
2023-03-15T07:15:19.240Z,7.71
2023-03-15T07:16:22.532Z,8.38
2023-03-15T07:17:26.103Z,7.29
2023-03-15T07:18:29.579Z,7.14
2023-03-15T07:19:32.964Z,6.00
2023-03-15T07:20:37.725Z,6.43
2023-03-15T07:21:40.664Z,6.00
2023-03-15T07:22:44.057Z,6.67
2023-03-15T07:23:47.361Z,7.57
2023-03-15T07:24:50.720Z,5.86
2023-03-15T07:25:55.285Z,5.57
2023-03-15T07:26:58.386Z,6.50
2023-03-15T07:28:01.712Z,6.00
2023-03-15T07:29:04.881Z,6.14
2023-03-15T07:30:08.057Z,5.57
2023-03-15T07:31:11.037Z,6.43
2023-03-15T07:32:15.389Z,7.00
2023-03-15T07:33:18.457Z,7.50
2023-03-15T07:34:21.412Z,7.57
2023-03-15T07:35:24.392Z,7.29
2023-03-15T07:36:27.478Z,6.17
2023-03-15T07:37:30.548Z,5.00
2023-03-15T07:38:33.733Z,7.33
2023-03-15T07:39:36.910Z,7.67
2023-03-15T07:40:40.198Z,7.50
2023-03-15T07:41:43.492Z,5.57
2023-03-15T07:42:46.658Z,6.86
2023-03-15T07:43:49.999Z,7.57
2023-03-15T07:44:53.821Z,7.57
2023-03-15T07:45:57.426Z,8.38
2023-03-15T07:47:01.007Z,9.43
2023-03-15T07:48:04.660Z,7.87
2023-03-15T07:49:08.075Z,7.00
2023-03-15T07:50:11.565Z,7.17
2023-03-15T07:51:15.676Z,7.14
2023-03-15T07:52:19.258Z,7.75
2023-03-15T07:53:22.766Z,6.50
2023-03-15T07:54:28.492Z,6.43
2023-03-15T07:55:30.926Z,6.87
2023-03-15T07:56:34.791Z,6.86
2023-03-15T07:57:38.335Z,8.00
2023-03-15T07:58:41.828Z,6.71
2023-03-15T07:59:45.321Z,7.00
2023-03-15T08:00:49.223Z,7.71
2023-03-15T08:01:53.099Z,8.25
2023-03-15T08:02:56.730Z,9.57
2023-03-15T08:04:00.285Z,9.50
2023-03-15T08:05:03.994Z,8.57
2023-03-15T08:06:07.792Z,8.71
2023-03-15T08:07:11.281Z,12.00
2023-03-15T08:08:14.851Z,12.50
2023-03-15T08:09:18.573Z,10.14
2023-03-15T08:10:21.486Z,8.88
2023-03-15T08:11:24.549Z,9.17
2023-03-15T08:12:27.634Z,10.00
2023-03-15T08:13:30.706Z,10.33
2023-03-15T08:14:33.684Z,9.33
2023-03-15T08:15:36.832Z,9.33
2023-03-15T08:16:40.281Z,11.83
2023-03-15T08:17:43.510Z,10.43
2023-03-15T08:18:46.682Z,8.29
2023-03-15T08:19:50.066Z,8.86
2023-03-15T08:20:53.694Z,9.00
2023-03-15T08:21:57.265Z,8.86
2023-03-15T08:23:00.776Z,10.00
2023-03-15T08:24:04.461Z,10.29
2023-03-15T08:25:07.810Z,11.00
2023-03-15T08:26:11.457Z,11.14
2023-03-15T08:27:15.017Z,10.57
2023-03-15T08:28:18.423Z,10.43
2023-03-15T08:29:21.505Z,11.00
2023-03-15T08:30:24.788Z,11.86
2023-03-15T08:31:27.839Z,11.71
2023-03-15T08:32:31.264Z,11.57
2023-03-15T08:33:34.845Z,10.00
2023-03-15T08:34:38.112Z,9.71
2023-03-15T08:35:41.543Z,13.43
2023-03-15T08:36:44.900Z,15.29
2023-03-15T08:37:48.271Z,13.57
2023-03-15T08:38:51.553Z,12.00
2023-03-15T08:39:55.160Z,9.29
2023-03-15T08:40:58.245Z,9.86
2023-03-15T08:42:01.315Z,10.33
2023-03-15T08:43:04.311Z,10.71
2023-03-15T08:44:07.396Z,10.86
2023-03-15T08:45:10.509Z,9.14
2023-03-15T08:46:13.473Z,8.83
2023-03-15T08:47:16.619Z,11.00
2023-03-15T08:48:20.096Z,12.29
2023-03-15T08:49:23.594Z,12.00
2023-03-15T08:50:27.047Z,10.57
2023-03-15T08:51:30.567Z,10.71
2023-03-15T08:52:34.158Z,11.14
2023-03-15T08:53:37.859Z,9.50
2023-03-15T08:54:41.244Z,10.14
2023-03-15T08:55:44.429Z,11.00
2023-03-15T08:56:47.582Z,10.67
2023-03-15T08:57:50.760Z,10.43
2023-03-15T08:58:53.764Z,12.00
2023-03-15T08:59:56.952Z,12.17
2023-03-15T09:01:00.034Z,11.83
2023-03-15T09:02:03.025Z,11.17
2023-03-15T09:03:06.182Z,11.29
2023-03-15T09:04:09.314Z,10.00
2023-03-15T09:05:12.340Z,10.14
2023-03-15T09:06:15.446Z,11.00
2023-03-15T09:07:18.658Z,11.33
2023-03-15T09:08:21.913Z,10.50
2023-03-15T09:09:25.558Z,12.83
2023-03-15T09:10:29.471Z,11.14
2023-03-15T09:11:33.164Z,11.00
2023-03-15T09:12:36.765Z,12.57
2023-03-15T09:13:40.163Z,13.50
2023-03-15T09:14:46.390Z,13.00
2023-03-15T09:15:49.905Z,11.25
2023-03-15T09:16:53.541Z,10.00
2023-03-15T09:17:56.776Z,10.25
2023-03-15T09:19:00.342Z,9.71
2023-03-15T09:20:03.927Z,10.00
2023-03-15T09:21:07.714Z,10.50
2023-03-15T09:22:16.626Z,11.86
2023-03-15T09:23:15.632Z,13.00
2023-03-15T09:24:18.927Z,11.86
2023-03-15T09:25:22.528Z,12.57
2023-03-15T09:26:26.200Z,13.14
2023-03-15T09:27:30.099Z,11.43
2023-03-15T09:28:33.695Z,11.00
2023-03-15T09:29:37.238Z,8.86
2023-03-15T09:30:40.392Z,9.67
2023-03-15T09:31:43.570Z,12.00
2023-03-15T09:32:47.049Z,10.83
2023-03-15T09:33:50.450Z,11.57
2023-03-15T09:34:53.839Z,12.00
2023-03-15T09:35:57.650Z,11.43
2023-03-15T09:37:01.403Z,11.43
2023-03-15T09:38:05.272Z,11.50
2023-03-15T09:39:08.426Z,13.43
2023-03-15T09:40:11.795Z,14.00
2023-03-15T09:41:15.572Z,12.86
2023-03-15T09:42:26.226Z,13.00
2023-03-15T09:43:29.793Z,11.25
2023-03-15T09:44:33.276Z,11.86
2023-03-15T09:45:37.215Z,11.50
2023-03-15T09:46:42.403Z,10.43
2023-03-15T09:47:45.060Z,11.63
2023-03-15T09:48:48.247Z,11.43
2023-03-15T09:49:51.698Z,11.86
2023-03-15T09:50:54.687Z,11.00
2023-03-15T09:51:57.952Z,11.43
2023-03-15T09:53:01.262Z,12.71
2023-03-15T09:54:04.701Z,11.57
2023-03-15T09:55:08.227Z,10.25
2023-03-15T09:56:11.579Z,10.00
2023-03-15T09:57:14.973Z,9.43
2023-03-15T09:58:18.576Z,9.43
2023-03-15T09:59:22.250Z,10.71
2023-03-15T10:00:25.841Z,11.71
2023-03-15T10:01:29.599Z,12.88
2023-03-15T10:02:33.234Z,12.57
2023-03-15T10:03:36.966Z,12.29
2023-03-15T10:04:40.666Z,11.71
2023-03-15T10:05:44.320Z,10.86
2023-03-15T10:06:48.045Z,10.86
2023-03-15T10:07:51.714Z,11.14
2023-03-15T10:08:55.494Z,11.00
2023-03-15T10:09:59.103Z,14.63
2023-03-15T10:11:02.780Z,14.86
2023-03-15T10:12:06.428Z,12.00
2023-03-15T10:13:11.200Z,12.63
2023-03-15T10:14:14.590Z,12.29
2023-03-15T10:15:18.389Z,12.29
2023-03-15T10:16:22.122Z,11.25
2023-03-15T10:17:25.455Z,11.00
2023-03-15T10:18:28.945Z,11.86
2023-03-15T10:19:32.744Z,13.00
2023-03-15T10:20:36.439Z,13.00
2023-03-15T10:21:40.037Z,12.71
2023-03-15T10:22:43.378Z,12.71
2023-03-15T10:23:46.795Z,12.00
2023-03-15T10:24:50.292Z,13.14
2023-03-15T10:25:53.781Z,12.14
2023-03-15T10:26:57.158Z,13.29
2023-03-15T10:28:00.654Z,12.14
2023-03-15T10:29:04.141Z,12.71
2023-03-15T10:30:07.722Z,13.14
2023-03-15T10:31:13.790Z,14.14
2023-03-15T10:32:15.945Z,13.38
2023-03-15T10:33:19.477Z,13.29
2023-03-15T10:34:23.027Z,16.29
2023-03-15T10:35:26.512Z,15.00
2023-03-15T10:36:29.914Z,15.57
2023-03-15T10:37:35.299Z,13.00
2023-03-15T10:38:37.945Z,11.38
2023-03-15T10:39:41.392Z,11.86
2023-03-15T10:40:45.956Z,13.00
2023-03-15T10:41:50.022Z,13.25
2023-03-15T10:42:53.687Z,12.37
2023-03-15T10:43:57.396Z,13.71
2023-03-15T10:45:01.394Z,13.38
2023-03-15T10:46:05.112Z,12.00
2023-03-15T10:47:21.828Z,12.57
2023-03-15T10:48:13.494Z,13.88
2023-03-15T10:49:17.197Z,13.71
2023-03-15T10:50:20.676Z,16.86
2023-03-15T10:51:23.967Z,13.71
2023-03-15T10:52:27.407Z,10.00
2023-03-15T10:53:30.633Z,12.29
2023-03-15T10:54:34.025Z,12.33
2023-03-15T10:55:37.617Z,12.86
2023-03-15T10:56:41.093Z,11.75
2023-03-15T10:57:52.572Z,10.00
2023-03-15T10:59:11.553Z,8.86
2023-03-15T11:00:00.578Z,14.00
2023-03-15T11:01:03.960Z,12.71
2023-03-15T11:02:07.506Z,11.43
2023-03-15T11:03:10.879Z,11.00
2023-03-15T11:04:14.132Z,12.71
2023-03-15T11:05:17.412Z,14.43
2023-03-15T11:06:20.700Z,13.29
2023-03-15T11:07:24.077Z,14.57
2023-03-15T11:08:27.363Z,15.57
2023-03-15T11:09:30.646Z,14.33
2023-03-15T11:10:33.926Z,12.00
2023-03-15T11:11:37.081Z,14.00
2023-03-15T11:12:40.394Z,13.67
2023-03-15T11:13:43.578Z,13.83
2023-03-15T11:14:46.693Z,15.00
2023-03-15T11:15:49.882Z,16.29
2023-03-15T11:16:53.132Z,16.00
2023-03-15T11:17:56.513Z,15.57
2023-03-15T11:18:59.922Z,15.00
2023-03-15T11:20:03.081Z,13.14
2023-03-15T11:21:06.254Z,13.00
2023-03-15T11:22:09.545Z,13.86
2023-03-15T11:23:13.135Z,14.57
2023-03-15T11:24:16.374Z,14.50
2023-03-15T11:25:19.477Z,13.57
2023-03-15T11:26:32.191Z,14.71
2023-03-15T11:27:27.100Z,15.00
2023-03-15T11:28:30.274Z,15.29
2023-03-15T11:29:33.865Z,15.29
2023-03-15T11:30:37.033Z,14.71
2023-03-15T11:31:40.239Z,16.00
2023-03-15T11:32:43.704Z,16.33
2023-03-15T11:33:47.016Z,17.00
2023-03-15T11:34:50.201Z,16.17
2023-03-15T11:35:53.516Z,13.71
2023-03-15T11:37:07.479Z,14.57
2023-03-15T11:38:13.092Z,13.75
2023-03-15T11:39:05.368Z,14.50
2023-03-15T11:40:12.149Z,15.00
2023-03-15T11:41:13.068Z,14.38
2023-03-15T11:42:16.251Z,13.71
2023-03-15T11:43:19.542Z,13.14
2023-03-15T11:44:22.925Z,14.00
2023-03-15T11:45:26.316Z,14.43
2023-03-15T11:46:29.714Z,15.00
2023-03-15T11:47:33.296Z,16.71
2023-03-15T11:48:36.780Z,15.71
2023-03-15T11:49:40.059Z,14.29
2023-03-15T11:50:43.568Z,17.71
2023-03-15T11:51:46.935Z,17.00
2023-03-15T11:52:50.113Z,14.83
2023-03-15T11:53:53.302Z,15.43
2023-03-15T11:54:56.788Z,15.29
2023-03-15T11:56:00.196Z,13.57
2023-03-15T11:57:03.361Z,11.29
2023-03-15T11:58:06.636Z,11.71
2023-03-15T11:59:10.032Z,13.00
2023-03-15T12:00:13.261Z,13.57
2023-03-15T12:01:16.697Z,14.50
2023-03-15T12:02:19.897Z,13.71
2023-03-15T12:03:23.361Z,13.29
2023-03-15T12:04:26.656Z,12.57
2023-03-15T12:05:29.935Z,12.67
2023-03-15T12:06:33.230Z,13.33
2023-03-15T12:07:36.707Z,12.67
2023-03-15T12:08:41.426Z,12.14
2023-03-15T12:09:44.613Z,12.25
2023-03-15T12:10:48.322Z,16.00
2023-03-15T12:11:51.997Z,15.50
2023-03-15T12:12:55.484Z,13.57
2023-03-15T12:13:58.766Z,14.71
2023-03-15T12:15:02.236Z,13.71
2023-03-15T12:16:05.748Z,12.57
2023-03-15T12:17:09.462Z,12.57
2023-03-15T12:18:12.829Z,12.57
2023-03-15T12:19:16.338Z,12.86
2023-03-15T12:20:19.909Z,13.43
2023-03-15T12:21:23.168Z,13.86
2023-03-15T12:22:26.682Z,15.14
2023-03-15T12:23:30.272Z,15.00
2023-03-15T12:24:33.763Z,14.43
2023-03-15T12:25:45.482Z,13.29
2023-03-15T12:26:41.596Z,11.12
2023-03-15T12:27:45.257Z,14.00
2023-03-15T12:28:49.048Z,16.00
2023-03-15T12:29:52.638Z,14.00
2023-03-15T12:30:56.142Z,13.86
2023-03-15T12:31:59.411Z,13.57
2023-03-15T12:33:02.803Z,13.86
2023-03-15T12:34:05.994Z,14.29
2023-03-15T12:35:09.481Z,16.00
2023-03-15T12:36:12.892Z,15.88
2023-03-15T12:37:16.263Z,16.71
2023-03-15T12:38:19.421Z,15.57
2023-03-15T12:39:22.607Z,16.50
2023-03-15T12:40:26.829Z,15.00
2023-03-15T12:41:30.294Z,14.87
2023-03-15T12:42:33.715Z,14.57
2023-03-15T12:43:37.071Z,15.57
2023-03-15T12:44:40.262Z,13.43
2023-03-15T12:45:43.493Z,12.57
2023-03-15T12:46:46.728Z,11.86
2023-03-15T12:47:49.906Z,14.00
2023-03-15T12:48:53.085Z,16.00
2023-03-15T12:49:56.291Z,17.29
2023-03-15T12:50:59.359Z,15.33
2023-03-15T12:52:02.628Z,14.67
2023-03-15T12:53:05.809Z,15.00
2023-03-15T12:54:09.130Z,14.50
2023-03-15T12:55:12.374Z,13.43
2023-03-15T12:56:15.560Z,15.33
2023-03-15T12:57:18.743Z,15.86
2023-03-15T12:58:22.012Z,16.14
2023-03-15T12:59:25.270Z,14.71
2023-03-15T13:00:28.326Z,14.14
2023-03-15T13:01:31.499Z,14.29
2023-03-15T13:02:49.787Z,14.14
2023-03-15T13:03:39.113Z,13.00
2023-03-15T13:04:42.834Z,13.00
2023-03-15T13:05:49.282Z,14.86
2023-03-15T13:06:50.349Z,15.75
2023-03-15T13:07:53.634Z,17.00
2023-03-15T13:08:56.919Z,18.29
2023-03-15T13:10:00.217Z,15.71
2023-03-15T13:11:03.383Z,15.14
2023-03-15T13:12:06.570Z,15.83
2023-03-15T13:13:09.777Z,16.67
2023-03-15T13:14:12.955Z,16.33
2023-03-15T13:15:16.225Z,16.43
2023-03-15T13:16:19.452Z,16.43
2023-03-15T13:17:22.699Z,13.57
2023-03-15T13:18:25.963Z,14.14
2023-03-15T13:19:29.146Z,16.00
2023-03-15T13:20:32.761Z,15.57
2023-03-15T13:21:36.232Z,14.00
2023-03-15T13:22:43.886Z,14.29
2023-03-15T13:23:43.820Z,16.50
2023-03-15T13:24:47.008Z,16.71
2023-03-15T13:25:50.593Z,15.57
2023-03-15T13:26:54.111Z,15.00
2023-03-15T13:27:57.271Z,16.29
2023-03-15T13:29:00.574Z,15.50
2023-03-15T13:30:03.841Z,15.67
2023-03-15T13:31:07.129Z,16.86
2023-03-15T13:32:10.310Z,17.14
2023-03-15T13:33:13.340Z,14.29
2023-03-15T13:34:16.780Z,16.00
2023-03-15T13:35:19.930Z,15.14
2023-03-15T13:36:26.310Z,17.43
2023-03-15T13:37:29.402Z,16.00
2023-03-15T13:38:32.574Z,16.67
2023-03-15T13:39:35.847Z,17.00
2023-03-15T13:40:39.234Z,16.00
2023-03-15T13:41:42.413Z,16.83
2023-03-15T13:42:45.597Z,15.57
2023-03-15T13:43:48.790Z,14.86
2023-03-15T13:44:52.066Z,14.00
2023-03-15T13:45:55.356Z,14.29
2023-03-15T13:46:58.556Z,15.00
2023-03-15T13:48:01.577Z,16.57
2023-03-15T13:49:04.935Z,18.17
2023-03-15T13:50:08.300Z,14.57
2023-03-15T13:51:11.562Z,15.29
2023-03-15T13:52:14.624Z,16.86